Time;durP1;ratioP1;P1;durP2;ratioP2;P2;SDS_P1;SDS_P2;PMS_P1;PMS_P2;Temp;Humidity;BMP_temperature;BMP_pressure;BME280_temperature;BME280_humidity;BME280_pressure;Samples;Min_cycle;Max_cycle;Signal;HPM_P1;HPM_P2
2021/03/02 00:00:21;;;;;;;6.15;3.45;;;;;;;2.09;77.47;101854.47;1734395;81;21680;-68
2021/03/02 00:02:48;;;;;;;6.65;3.33;;;;;;;2.09;77.26;101841.30;1767303;79;21127;-69
2021/03/02 00:05:16;;;;;;;7.55;3.72;;;;;;;2.08;77.00;101839.66;1762525;81;21337;-69
2021/03/02 00:07:44;;;;;;;5.15;3.42;;;;;;;2.04;76.91;101833.91;1730344;81;21215;-69
2021/03/02 00:10:12;;;;;;;5.30;3.10;;;;;;;2.04;76.95;101835.22;1766726;79;21471;-69
2021/03/02 00:12:41;;;;;;;6.10;3.87;;;;;;;2.04;76.85;101832.59;1728632;81;21202;-70
2021/03/02 00:15:12;;;;;;;5.70;3.60;;;;;;;2.05;76.67;101817.59;1739313;81;21192;-69
2021/03/02 00:17:47;;;;;;;5.60;3.20;;;;;;;2.02;76.57;101813.98;1765793;79;21187;-67
2021/03/02 00:20:22;;;;;;;6.70;3.20;;;;;;;2.01;76.61;101811.02;1764237;79;21243;-69
2021/03/02 00:23:08;;;;;;;6.10;3.40;;;;;;;2.01;76.64;101799.98;1754778;80;21227;-68
2021/03/02 00:25:43;;;;;;;6.08;3.35;;;;;;;2.05;76.65;101802.59;1760755;79;21199;-70
2021/03/02 00:28:11;;;;;;;5.90;3.50;;;;;;;2.05;76.52;101797.33;1720447;79;21657;-70
2021/03/02 00:30:39;;;;;;;6.83;3.30;;;;;;;2.02;76.46;101792.89;1766835;79;22087;-70
2021/03/02 00:33:07;;;;;;;5.50;3.20;;;;;;;1.98;76.48;101791.09;1806818;78;21211;-71
2021/03/02 00:35:36;;;;;;;6.67;3.52;;;;;;;1.97;76.50;101784.66;1774602;79;21171;-70
2021/03/02 00:38:04;;;;;;;6.20;3.77;;;;;;;1.97;76.53;101782.03;1777124;78;22341;-70
2021/03/02 00:40:32;;;;;;;5.72;3.45;;;;;;;1.97;76.59;101774.12;1792860;78;21190;-71
2021/03/02 00:43:00;;;;;;;8.35;3.55;;;;;;;1.98;76.63;101763.93;1789724;78;21472;-71
2021/03/02 00:45:27;;;;;;;5.50;3.55;;;;;;;2.00;76.61;101761.92;1790026;78;21216;-70
2021/03/02 00:47:55;;;;;;;6.10;3.70;;;;;;;2.00;76.60;101755.34;1783256;79;21151;-70
2021/03/02 00:50:24;;;;;;;6.37;4.05;;;;;;;2.00;76.61;101748.75;1790338;78;22629;-71
2021/03/02 00:52:53;;;;;;;5.45;3.72;;;;;;;1.99;76.58;101740.53;1797842;79;21208;-72
2021/03/02 00:55:23;;;;;;;6.00;3.40;;;;;;;1.98;76.62;101734.95;1795030;78;22598;-70
2021/03/02 00:57:51;;;;;;;5.87;3.00;;;;;;;1.98;76.64;101731.81;1779284;78;21195;-71
2021/03/02 01:00:22;;;;;;;6.05;3.75;;;;;;;1.97;76.66;101738.05;1788613;78;21910;-71
2021/03/02 01:02:52;;;;;;;5.75;3.50;;;;;;;1.98;76.66;101725.72;1766527;79;21170;-71
2021/03/02 01:05:20;;;;;;;6.25;3.70;;;;;;;1.97;76.66;101724.87;1749949;81;21210;-72
2021/03/02 01:07:48;;;;;;;5.78;3.47;;;;;;;1.94;76.72;101722.61;1724391;81;21302;-71
2021/03/02 01:10:18;;;;;;;7.00;4.08;;;;;;;1.93;76.74;101714.36;1739855;81;21223;-70
2021/03/02 01:12:49;;;;;;;5.37;3.55;;;;;;;1.93;76.77;101709.09;1766056;79;21538;-71
2021/03/02 01:15:17;;;;;;;6.97;4.37;;;;;;;1.93;76.85;101710.91;1757589;79;22405;-70
2021/03/02 01:17:45;;;;;;;6.47;3.85;;;;;;;1.91;76.89;101709.78;1763404;79;21191;-70
2021/03/02 01:20:14;;;;;;;6.40;4.03;;;;;;;1.89;76.91;101706.48;1762682;80;21670;-70
2021/03/02 01:22:41;;;;;;;7.33;4.30;;;;;;;1.88;76.95;101698.27;1760030;79;21609;-70
2021/03/02 01:25:12;;;;;;;7.30;4.30;;;;;;;1.88;76.99;101696.45;1794199;78;21190;-70
2021/03/02 01:27:39;;;;;;;7.00;4.08;;;;;;;1.87;77.01;101696.59;1759984;81;21194;-70
2021/03/02 01:30:12;;;;;;;7.95;4.55;;;;;;;1.84;77.03;101692.52;1764479;79;21174;-71
2021/03/02 01:32:40;;;;;;;9.70;5.45;;;;;;;1.81;77.07;101690.70;1742667;82;21655;-72
2021/03/02 01:35:11;;;;;;;7.35;4.47;;;;;;;1.74;77.13;101675.25;1733177;81;21187;-70
2021/03/02 01:37:39;;;;;;;8.18;4.70;;;;;;;1.70;77.25;101672.14;1736565;81;21495;-71
2021/03/02 01:40:13;;;;;;;9.58;5.65;;;;;;;1.64;77.44;101685.48;1744724;81;21164;-71
2021/03/02 01:42:41;;;;;;;8.98;4.92;;;;;;;1.61;77.59;101681.91;1765836;79;21579;-70
2021/03/02 01:45:17;;;;;;;8.60;4.65;;;;;;;1.60;77.75;101676.30;1768249;81;21281;-69
2021/03/02 01:47:48;;;;;;;6.45;4.37;;;;;;;1.59;77.86;101666.77;1796073;78;21222;-72
2021/03/02 01:50:16;;;;;;;7.42;4.97;;;;;;;1.59;77.91;101651.46;1797252;78;21184;-70
2021/03/02 01:52:45;;;;;;;10.60;5.42;;;;;;;1.55;77.97;101640.45;1797122;78;21269;-70
2021/03/02 01:55:14;;;;;;;7.72;4.85;;;;;;;1.52;78.06;101638.16;1782887;79;21155;-71
2021/03/02 01:57:42;;;;;;;7.80;4.47;;;;;;;1.47;78.20;101635.20;1771340;78;21517;-72
2021/03/02 02:00:33;;;;;;;7.78;4.50;;;;;;;1.44;78.33;101632.09;1805121;78;21219;-71
2021/03/02 02:03:17;;;;;;;8.77;5.30;;;;;;;1.42;78.54;101627.02;1830828;76;22764;-70
2021/03/02 02:05:48;;;;;;;7.53;4.70;;;;;;;1.34;78.67;101632.29;1802786;78;21567;-70
2021/03/02 02:08:20;;;;;;;7.90;4.30;;;;;;;1.30;78.85;101635.76;1820046;78;21355;-73
2021/03/02 02:11:15;;;;;;;7.42;4.28;;;;;;;1.28;79.04;101625.06;1829339;75;21197;-72
2021/03/02 02:13:48;;;;;;;7.72;4.50;;;;;;;1.26;79.19;101617.86;1689383;83;21203;-72
2021/03/02 02:16:16;;;;;;;6.97;4.80;;;;;;;1.26;79.31;101621.80;1717662;81;21233;-70
2021/03/02 02:18:44;;;;;;;9.15;4.60;;;;;;;1.25;79.37;101608.30;1686449;83;21237;-70
2021/03/02 02:21:20;;;;;;;8.68;4.60;;;;;;;1.24;79.42;101614.06;1647371;83;21849;-71
2021/03/02 02:23:56;;;;;;;8.33;4.40;;;;;;;1.24;79.46;101607.48;1636275;83;21698;-70
2021/03/02 02:26:44;;;;;;;9.20;4.85;;;;;;;1.23;79.53;101613.74;1708409;82;21267;-71
2021/03/02 02:29:18;;;;;;;6.80;4.58;;;;;;;1.23;79.59;101599.77;1698876;83;21242;-71
2021/03/02 02:31:45;;;;;;;7.42;4.30;;;;;;;1.24;79.66;101615.88;1710453;82;21319;-70
2021/03/02 02:34:16;;;;;;;9.15;4.70;;;;;;;1.27;79.67;101605.02;1669314;83;21377;-71
2021/03/02 02:36:49;;;;;;;7.08;4.35;;;;;;;1.28;79.65;101598.75;1693970;83;21592;-70
2021/03/02 02:39:17;;;;;;;7.08;4.37;;;;;;;1.28;79.66;101598.75;1699597;84;21212;-71
2021/03/02 02:41:47;;;;;;;8.20;4.58;;;;;;;1.27;79.66;101590.03;1760138;80;21493;-71
2021/03/02 02:44:16;;;;;;;7.03;4.28;;;;;;;1.27;79.68;101585.27;1702599;83;21627;-69
2021/03/02 02:46:44;;;;;;;7.08;4.03;;;;;;;1.27;79.71;101590.53;1708267;82;21422;-69
2021/03/02 02:49:12;;;;;;;7.90;4.10;;;;;;;1.28;79.75;101588.22;1702559;82;21250;-70
2021/03/02 02:51:40;;;;;;;6.35;3.92;;;;;;;1.30;79.75;101593.64;1661823;82;21691;-69
2021/03/02 02:54:08;;;;;;;8.68;4.72;;;;;;;1.32;79.70;101592.17;1705951;82;21411;-70
2021/03/02 02:56:38;;;;;;;8.20;4.45;;;;;;;1.31;79.72;101593.96;1708380;82;21642;-69
2021/03/02 02:59:19;;;;;;;6.15;4.30;;;;;;;1.34;79.73;101592.80;1718211;82;21404;-69
2021/03/02 03:02:02;;;;;;;7.92;4.62;;;;;;;1.37;79.67;101579.30;1707077;82;21293;-70
2021/03/02 03:04:41;;;;;;;8.50;4.47;;;;;;;1.38;79.62;101579.16;1718163;81;21216;-70
2021/03/02 03:07:16;;;;;;;6.60;4.12;;;;;;;1.37;79.59;101581.94;1712433;82;21257;-70
2021/03/02 03:09:45;;;;;;;7.83;4.87;;;;;;;1.38;79.58;101573.89;1759788;80;21185;-71
2021/03/02 03:12:14;;;;;;;7.37;4.83;;;;;;;1.35;79.61;101560.22;1730194;80;21228;-70
2021/03/02 03:15:01;;;;;;;8.08;4.37;;;;;;;1.33;79.64;101549.88;1753041;80;21169;-70
2021/03/02 03:17:33;;;;;;;7.00;4.50;;;;;;;1.34;79.67;101549.38;1757734;80;21117;-71
2021/03/02 03:20:03;;;;;;;7.28;4.72;;;;;;;1.31;79.72;101549.72;1734328;80;21099;-72
2021/03/02 03:22:30;;;;;;;8.33;5.28;;;;;;;1.31;79.76;101551.03;1717716;80;21154;-71
2021/03/02 03:24:58;;;;;;;9.05;4.87;;;;;;;1.28;79.79;101554.82;1756438;80;21382;-71
2021/03/02 03:27:28;;;;;;;7.55;4.67;;;;;;;1.28;79.86;101554.00;1767868;80;21172;-73
2021/03/02 03:29:56;;;;;;;8.40;5.20;;;;;;;1.27;79.89;101554.50;1760366;80;21224;-72
2021/03/02 03:32:24;;;;;;;7.17;4.33;;;;;;;1.24;79.94;101547.45;1757396;80;21224;-72
2021/03/02 03:34:52;;;;;;;7.33;5.08;;;;;;;1.22;80.06;101541.52;1752277;80;21155;-73
2021/03/02 03:37:20;;;;;;;7.58;5.15;;;;;;;1.23;80.04;101527.39;1762340;80;21360;-73
2021/03/02 03:39:48;;;;;;;8.48;5.15;;;;;;;1.25;80.03;101539.88;1751955;80;21445;-73
2021/03/02 03:42:15;;;;;;;8.80;5.17;;;;;;;1.24;80.03;101526.39;1720132;82;21247;-73
2021/03/02 03:44:44;;;;;;;9.93;5.22;;;;;;;1.23;80.04;101532.66;1695210;82;21231;-74
2021/03/02 03:47:12;;;;;;;9.25;5.35;;;;;;;1.20;80.08;101527.73;1668182;83;21499;-73
2021/03/02 03:49:41;;;;;;;8.23;5.28;;;;;;;1.20;80.12;101539.08;1756955;80;21333;-73
2021/03/02 03:52:09;;;;;;;9.98;4.92;;;;;;;1.21;80.14;101537.27;1755488;80;21194;-72
2021/03/02 03:54:38;;;;;;;7.67;5.20;;;;;;;1.21;80.13;101539.89;1752961;80;21183;-74
2021/03/02 03:57:05;;;;;;;7.35;5.25;;;;;;;1.24;80.15;101536.92;1732920;81;21180;-74
2021/03/02 03:59:33;;;;;;;9.88;5.60;;;;;;;1.27;80.05;101541.34;1756174;80;21118;-74
2021/03/02 04:02:01;;;;;;;8.98;5.80;;;;;;;1.29;80.05;101538.06;1731149;81;21641;-74
2021/03/02 04:04:29;;;;;;;8.95;5.37;;;;;;;1.32;80.01;101538.22;1757164;80;21232;-75
2021/03/02 04:06:57;;;;;;;8.80;6.00;;;;;;;1.32;79.95;101539.53;1752967;80;21654;-74
2021/03/02 04:09:25;;;;;;;11.85;7.15;;;;;;;1.34;79.90;101540.16;1718166;81;21534;-75
2021/03/02 04:11:55;;;;;;;9.25;6.58;;;;;;;1.35;79.86;101540.01;1757058;80;21259;-74
2021/03/02 04:14:22;;;;;;;9.28;6.22;;;;;;;1.38;79.76;101530.92;1758649;80;21361;-73
2021/03/02 04:16:50;;;;;;;11.33;7.03;;;;;;;1.39;79.67;101533.90;1752154;80;21684;-74
2021/03/02 04:19:18;;;;;;;10.43;7.03;;;;;;;1.38;79.65;101529.61;1757336;80;21148;-76
2021/03/02 04:21:46;;;;;;;11.38;8.20;;;;;;;1.34;79.68;101533.08;1758793;80;21236;-75
2021/03/02 04:24:13;;;;;;;10.72;6.97;;;;;;;1.30;79.80;101531.80;1735761;80;21186;-75
2021/03/02 04:26:41;;;;;;;12.58;7.33;;;;;;;1.28;79.93;101529.00;1708055;82;21401;-76
2021/03/02 04:29:09;;;;;;;14.45;7.53;;;;;;;1.23;80.04;101525.58;1707640;82;21196;-76
2021/03/02 04:31:38;;;;;;;11.75;8.60;;;;;;;1.23;80.13;101516.88;1706520;82;21100;-76
2021/03/02 04:34:05;;;;;;;13.50;9.20;;;;;;;1.23;80.22;101515.05;1701091;82;21318;-75
2021/03/02 04:36:34;;;;;;;11.68;7.70;;;;;;;1.22;80.27;101513.89;1704866;82;21152;-76
2021/03/02 04:39:03;;;;;;;14.03;8.58;;;;;;;1.24;80.33;101512.73;1714981;82;21817;-74
2021/03/02 04:41:31;;;;;;;12.45;8.35;;;;;;;1.24;80.37;101505.34;1710967;82;21099;-76
2021/03/02 04:43:58;;;;;;;12.58;8.45;;;;;;;1.24;80.38;101514.55;1712395;82;21201;-74
2021/03/02 04:46:26;;;;;;;14.00;8.85;;;;;;;1.24;80.33;101505.34;1704410;82;21215;-76
2021/03/02 04:48:54;;;;;;;13.78;9.33;;;;;;;1.18;80.34;101491.05;1683260;83;21235;-74
2021/03/02 04:51:23;;;;;;;12.23;8.45;;;;;;;1.13;80.41;101515.27;1707785;83;21467;-74
2021/03/02 04:53:50;;;;;;;13.15;9.10;;;;;;;1.13;80.50;101523.16;1683667;83;21191;-76
2021/03/02 04:56:18;;;;;;;12.85;9.38;;;;;;;1.11;80.58;101530.39;1695583;82;21663;-75
2021/03/02 04:58:47;;;;;;;16.25;9.80;;;;;;;1.10;80.61;101517.41;1753232;81;21165;-76
2021/03/02 05:01:14;;;;;;;13.72;9.58;;;;;;;1.09;80.65;101504.76;1754375;80;21621;-75
2021/03/02 05:03:43;;;;;;;15.15;9.98;;;;;;;1.10;80.68;101525.31;1755770;81;21425;-75
2021/03/02 05:06:13;;;;;;;14.70;9.58;;;;;;;1.09;80.71;101506.08;1754979;80;21519;-74
2021/03/02 05:08:41;;;;;;;17.10;11.25;;;;;;;1.10;80.72;101510.84;1757053;80;21170;-76
2021/03/02 05:11:09;;;;;;;14.40;9.63;;;;;;;1.11;80.72;101513.78;1755290;80;21228;-76
2021/03/02 05:13:37;;;;;;;14.98;10.08;;;;;;;1.12;80.73;101504.42;1754516;81;21102;-76
2021/03/02 05:16:08;;;;;;;14.33;9.63;;;;;;;1.13;80.74;101501.29;1756596;80;21601;-74
2021/03/02 05:18:37;;;;;;;17.52;10.48;;;;;;;1.13;80.75;101506.55;1754568;80;21146;-75
2021/03/02 05:21:05;;;;;;;15.90;10.40;;;;;;;1.11;80.77;101505.39;1754766;80;21676;-75
2021/03/02 05:23:34;;;;;;;16.05;10.68;;;;;;;1.12;80.84;101505.73;1754387;80;21177;-74
2021/03/02 05:26:03;;;;;;;15.05;9.70;;;;;;;1.13;80.80;101504.73;1755772;80;21572;-75
2021/03/02 05:28:32;;;;;;;17.25;10.30;;;;;;;1.13;80.79;101504.73;1755481;80;21368;-74
2021/03/02 05:30:59;;;;;;;16.25;11.22;;;;;;;1.13;80.74;101510.00;1758261;80;21140;-75
2021/03/02 05:33:27;;;;;;;17.55;11.63;;;;;;;1.14;80.76;101511.63;1752969;80;21240;-75
2021/03/02 05:35:55;;;;;;;17.65;11.57;;;;;;;1.16;80.75;101505.71;1694598;83;21209;-76
2021/03/02 05:38:22;;;;;;;18.02;12.03;;;;;;;1.19;80.67;101475.61;1719129;82;21236;-75
2021/03/02 05:40:50;;;;;;;16.10;11.25;;;;;;;1.21;80.62;101491.21;1716376;83;21826;-74
2021/03/02 05:43:18;;;;;;;16.20;10.78;;;;;;;1.22;80.61;101507.31;1690945;82;21167;-74
2021/03/02 05:45:46;;;;;;;19.87;11.83;;;;;;;1.20;80.59;101508.00;1759161;80;21240;-74
2021/03/02 05:48:13;;;;;;;18.07;11.40;;;;;;;1.20;80.62;101495.66;1756121;80;21248;-75
2021/03/02 05:50:42;;;;;;;16.48;10.58;;;;;;;1.20;80.63;101500.11;1763420;80;21150;-75
2021/03/02 05:53:11;;;;;;;17.73;10.75;;;;;;;1.20;80.63;101501.42;1747324;80;21569;-75
2021/03/02 05:55:38;;;;;;;15.03;10.43;;;;;;;1.21;80.62;101510.95;1750239;80;21117;-75
2021/03/02 05:58:06;;;;;;;16.73;10.50;;;;;;;1.21;80.58;101491.21;1714501;81;21197;-76
2021/03/02 06:00:34;;;;;;;16.87;10.90;;;;;;;1.21;80.63;101498.60;1698956;82;21257;-75
2021/03/02 06:03:02;;;;;;;17.30;11.08;;;;;;;1.24;80.59;101500.08;1761402;80;21151;-75
2021/03/02 06:05:30;;;;;;;17.90;10.70;;;;;;;1.27;80.57;101493.16;1764944;80;21646;-75
2021/03/02 06:07:58;;;;;;;16.75;10.88;;;;;;;1.32;80.48;101488.21;1756589;80;21145;-76
2021/03/02 06:10:30;;;;;;;15.38;10.13;;;;;;;1.29;80.39;101500.40;1756077;80;21216;-76
2021/03/02 06:12:58;;;;;;;;;;;;;;;1.29;80.44;101496.45;1761889;80;21073;-76
2021/03/02 06:15:28;;;;;;;14.90;10.65;;;;;;;1.29;80.41;101524.90;1758981;80;20287;-75
2021/03/02 06:18:15;;;;;;;18.73;10.85;;;;;;;1.31;80.37;101493.94;1756476;80;21449;-76
2021/03/02 06:20:44;;;;;;;16.48;9.95;;;;;;;1.32;80.31;101502.19;1754253;80;21146;-74
2021/03/02 06:23:30;;;;;;;13.13;8.68;;;;;;;1.31;80.28;101483.41;1756617;81;21094;-74
2021/03/02 06:26:11;;;;;;;15.85;10.20;;;;;;;1.32;80.28;101493.47;1755416;80;21621;-75
2021/03/02 06:28:41;;;;;;;14.55;9.63;;;;;;;1.32;80.26;101478.49;1759952;80;21597;-75
2021/03/02 06:31:34;;;;;;;14.93;9.83;;;;;;;1.34;80.25;101483.58;1757849;80;21620;-76
2021/03/02 06:34:09;;;;;;;17.42;10.95;;;;;;;1.34;80.25;101473.86;1749359;80;21652;-75
2021/03/02 06:36:40;;;;;;;15.43;10.05;;;;;;;1.34;80.24;101485.70;1755461;80;21206;-76
2021/03/02 06:39:31;;;;;;;18.65;10.55;;;;;;;1.37;80.26;101481.41;1755787;80;21248;-74
2021/03/02 06:42:22;;;;;;;16.65;10.38;;;;;;;1.42;80.23;101476.14;1746082;81;21113;-75
2021/03/02 06:45:03;;;;;;;18.92;11.63;;;;;;;1.45;80.11;101475.77;1755671;80;21387;-76
2021/03/02 06:47:40;;;;;;;16.65;10.90;;;;;;;1.45;80.09;101468.72;1751430;80;21191;-76
2021/03/02 06:50:17;;;;;;;22.00;13.98;;;;;;;1.47;80.07;101478.55;1751964;80;21632;-75
2021/03/02 06:52:45;;;;;;;19.67;13.38;;;;;;;1.48;80.00;101477.58;1754259;80;21161;-74
2021/03/02 06:55:23;;;;;;;19.95;12.45;;;;;;;1.52;79.99;101472.78;1750979;80;21188;-75
2021/03/02 06:57:51;;;;;;;19.07;13.00;;;;;;;1.55;79.92;101472.44;1755450;80;21378;-75
2021/03/02 07:00:33;;;;;;;19.60;13.20;;;;;;;1.56;79.87;101470.94;1748018;80;21172;-74
2021/03/02 07:03:01;;;;;;;20.92;12.60;;;;;;;1.56;79.86;101476.20;1750774;80;21156;-76
2021/03/02 07:05:29;;;;;;;20.60;12.80;;;;;;;1.56;79.82;101479.34;1761245;80;21160;-75
2021/03/02 07:07:59;;;;;;;20.25;12.93;;;;;;;1.56;79.81;101485.42;1759618;80;21145;-75
2021/03/02 07:10:27;;;;;;;24.23;15.60;;;;;;;1.59;79.75;101481.12;1750879;80;21349;-75
2021/03/02 07:12:55;;;;;;;21.23;14.70;;;;;;;1.55;79.72;101470.63;1755428;80;21232;-74
2021/03/02 07:15:24;;;;;;;23.18;14.28;;;;;;;1.56;79.76;101476.20;1728179;81;21240;-75
2021/03/02 07:17:54;;;;;;;21.25;13.95;;;;;;;1.56;79.79;101479.34;1756239;80;21624;-75
2021/03/02 07:20:23;;;;;;;23.00;13.72;;;;;;;1.57;79.79;101479.65;1753988;80;21212;-75
2021/03/02 07:22:53;;;;;;;22.40;14.38;;;;;;;1.60;79.79;101474.84;1753604;80;21370;-75
2021/03/02 07:25:22;;;;;;;21.95;15.15;;;;;;;1.63;79.75;101483.72;1739326;80;21229;-76
2021/03/02 07:27:53;;;;;;;23.98;13.98;;;;;;;1.63;79.61;101478.45;1749678;81;21231;-76
2021/03/02 07:30:21;;;;;;;21.42;13.15;;;;;;;1.64;79.55;101477.45;1753861;80;21172;-76
2021/03/02 07:32:49;;;;;;;22.93;14.53;;;;;;;1.66;79.54;101472.52;1721021;81;21216;-75
2021/03/02 07:35:22;;;;;;;24.37;15.32;;;;;;;1.66;79.54;101469.39;1701414;82;21485;-76
2021/03/02 07:37:50;;;;;;;25.82;15.30;;;;;;;1.67;79.56;101464.94;1747902;80;21204;-75
2021/03/02 07:40:20;;;;;;;26.00;14.93;;;;;;;1.69;79.49;101459.00;1755797;80;21213;-76
2021/03/02 07:42:47;;;;;;;27.17;15.83;;;;;;;1.72;79.44;101465.23;1756957;80;21134;-77
2021/03/02 07:45:19;;;;;;;25.12;15.43;;;;;;;1.76;79.37;101467.84;1756036;80;21176;-75
2021/03/02 07:47:51;;;;;;;26.73;15.35;;;;;;;1.77;79.27;101468.14;1749004;80;21453;-75
2021/03/02 07:50:30;;;;;;;25.08;14.93;;;;;;;1.77;79.20;101460.25;1758159;80;21267;-77
2021/03/02 07:53:20;;;;;;;28.65;16.15;;;;;;;1.78;79.01;101465.86;1758490;80;21310;-79
2021/03/02 07:55:50;;;;;;;28.80;15.60;;;;;;;1.77;79.00;101451.03;1757763;80;21217;-79
2021/03/02 07:58:21;;;;;;;29.23;16.10;;;;;;;1.80;78.97;101448.86;1751997;80;21708;-79
2021/03/02 08:00:50;;;;;;;28.98;15.85;;;;;;;1.83;78.85;101437.16;1760718;80;21169;-80
2021/03/02 08:03:30;;;;;;;28.45;15.28;;;;;;;1.88;78.79;101432.19;1751512;80;21245;-79
2021/03/02 08:06:03;;;;;;;28.70;15.40;;;;;;;1.89;78.64;101421.95;1758124;80;21153;-77
2021/03/02 08:08:33;;;;;;;29.25;15.70;;;;;;;1.91;78.56;101435.78;1751634;80;21133;-77
2021/03/02 08:11:05;;;;;;;27.05;16.42;;;;;;;1.95;78.48;101430.97;1753953;80;21204;-75
2021/03/02 08:13:43;;;;;;;31.27;16.42;;;;;;;1.96;78.33;101436.55;1758451;80;21399;-76
2021/03/02 08:16:15;;;;;;;30.88;15.43;;;;;;;1.95;78.24;101421.25;1768311;80;21211;-75
2021/03/02 08:18:44;;;;;;;33.73;17.05;;;;;;;1.98;78.07;101422.21;1747152;80;21203;-75
2021/03/02 08:21:18;;;;;;;34.00;17.73;;;;;;;1.99;77.86;101418.56;1751705;80;21232;-77
2021/03/02 08:23:58;;;;;;;33.20;17.65;;;;;;;1.98;77.90;101415.63;1755040;80;21231;-75
2021/03/02 08:26:34;;;;;;;29.37;15.53;;;;;;;2.01;77.89;101413.95;1747591;80;22275;-77
2021/03/02 08:29:16;;;;;;;35.90;17.80;;;;;;;2.06;77.82;101416.03;1744909;80;21164;-77
2021/03/02 08:31:49;;;;;;;33.02;17.42;;;;;;;2.02;77.65;101413.45;1753354;80;21644;-75
2021/03/02 08:34:20;;;;;;;32.40;16.15;;;;;;;1.99;77.65;101405.39;1760791;80;21144;-77
2021/03/02 08:36:50;;;;;;;36.75;18.87;;;;;;;2.00;77.65;101398.30;1756454;81;21204;-77
2021/03/02 08:39:20;;;;;;;37.30;17.85;;;;;;;2.01;77.65;101406.05;1756852;80;21165;-76
2021/03/02 08:41:49;;;;;;;37.85;18.65;;;;;;;2.02;77.62;101409.49;1752204;80;21222;-76
2021/03/02 08:44:24;;;;;;;37.90;19.82;;;;;;;2.04;77.63;101405.69;1756845;80;21185;-77
2021/03/02 08:46:56;;;;;;;39.55;19.10;;;;;;;2.07;77.57;101411.92;1758501;80;21671;-76
2021/03/02 08:49:25;;;;;;;32.98;17.60;;;;;;;2.15;77.46;101399.66;1764460;80;21121;-78
2021/03/02 08:52:00;;;;;;;37.50;18.52;;;;;;;2.18;77.29;101390.07;1756296;80;21218;-76
2021/03/02 08:54:28;;;;;;;38.88;18.62;;;;;;;2.18;77.14;101394.02;1753250;80;21095;-75
2021/03/02 08:57:02;;;;;;;40.95;19.67;;;;;;;2.19;77.05;101389.06;1767882;80;21117;-76
2021/03/02 08:59:32;;;;;;;37.75;18.52;;;;;;;2.21;77.04;101410.80;1753788;80;22375;-75
2021/03/02 09:02:00;;;;;;;38.60;18.27;;;;;;;2.28;76.93;101401.16;1757533;80;21192;-79
2021/03/02 09:04:32;;;;;;;41.30;18.90;;;;;;;2.34;76.78;101409.66;1766851;80;21491;-75
2021/03/02 09:07:00;;;;;;;;;;;;;;;2.35;76.65;101400.24;1759904;80;21248;-78
2021/03/02 09:09:29;;;;;;;39.33;18.27;;;;;;;2.37;76.61;101407.98;1755808;81;20213;-75
2021/03/02 09:11:58;;;;;;;39.75;19.00;;;;;;;2.36;76.49;101399.73;1756619;80;21141;-76
2021/03/02 09:17:19;;;;;;;37.20;18.87;;;;;;;2.35;76.28;101400.24;1794239;78;22412;-76
2021/03/02 09:19:47;;;;;;;39.35;18.60;;;;;;;2.31;76.26;101403.44;1783340;78;21116;-74
2021/03/02 09:22:20;;;;;;;37.60;19.25;;;;;;;2.33;76.18;101411.96;1788416;78;21147;-73
2021/03/02 09:24:55;;;;;;;39.63;18.98;;;;;;;2.35;76.17;101412.11;1773735;80;21621;-72
2021/03/02 09:27:34;;;;;;;38.13;17.85;;;;;;;2.41;76.17;101414.52;1779637;79;21143;-75
2021/03/02 09:30:07;;;;;;;38.08;19.07;;;;;;;2.43;75.92;101407.23;1781071;79;21540;-77
2021/03/02 09:32:36;;;;;;;37.28;16.85;;;;;;;2.44;75.86;101409.39;1783293;79;22425;-74
2021/03/02 09:35:08;;;;;;;34.25;17.82;;;;;;;2.42;75.75;101398.20;1740303;79;21310;-76
2021/03/02 09:37:37;;;;;;;36.70;17.52;;;;;;;2.38;75.82;101383.25;1784474;78;21643;-73
2021/03/02 09:40:08;;;;;;;32.55;15.68;;;;;;;2.39;75.77;101397.24;1774146;79;21168;-74
2021/03/02 09:42:38;;;;;;;33.08;16.17;;;;;;;2.39;75.75;101378.78;1785066;78;21127;-77
2021/03/02 09:45:17;;;;;;;33.33;17.65;;;;;;;2.39;75.74;101373.01;1779109;79;21147;-75
2021/03/02 09:47:47;;;;;;;35.88;17.00;;;;;;;2.37;75.74;101388.21;1777428;78;21448;-74
2021/03/02 09:50:18;;;;;;;38.05;17.00;;;;;;;2.38;75.74;101385.07;1789139;78;21218;-71
2021/03/02 09:52:55;;;;;;;36.48;18.27;;;;;;;2.39;75.82;101399.37;1791116;79;21199;-74
2021/03/02 09:55:29;;;;;;;36.77;18.20;;;;;;;2.43;75.85;101400.64;1785642;79;21144;-75
2021/03/02 10:00:48;;;;;;;36.60;18.17;;;;;;;2.50;75.75;101391.50;1781606;78;21737;-74
2021/03/02 10:03:22;;;;;;;34.13;17.45;;;;;;;2.52;75.70;101395.59;1782052;79;21226;-71
2021/03/02 10:05:59;;;;;;;31.77;16.23;;;;;;;2.49;75.55;101398.59;1781732;79;21199;-74
2021/03/02 10:08:36;;;;;;;31.82;16.23;;;;;;;2.53;75.51;101398.57;1784164;79;21179;-72
2021/03/02 10:11:16;;;;;;;28.92;14.65;;;;;;;2.55;75.36;101389.95;1784137;79;21208;-70
2021/03/02 10:13:50;;;;;;;29.40;14.43;;;;;;;2.58;75.28;101378.23;1788658;79;21201;-72
2021/03/02 10:16:29;;;;;;;32.67;16.40;;;;;;;2.55;75.11;101375.95;1789389;79;21580;-71
2021/03/02 10:19:06;;;;;;;31.12;16.05;;;;;;;2.54;75.08;101363.28;1781514;79;21212;-70
2021/03/02 10:24:38;;;;;;;32.53;16.40;;;;;;;2.59;75.02;101360.89;1801347;77;22723;-76
2021/03/02 10:27:18;;;;;;;34.55;17.12;;;;;;;2.52;75.07;101346.00;1773937;80;21137;-76
2021/03/02 10:29:48;;;;;;;29.25;14.87;;;;;;;2.52;75.12;101356.55;1800792;77;21437;-76
2021/03/02 10:32:16;;;;;;;34.15;17.42;;;;;;;2.53;75.09;101333.96;1798131;77;21717;-76
2021/03/02 10:34:45;;;;;;;33.28;15.75;;;;;;;2.52;75.11;101327.03;1807804;77;21187;-75
2021/03/02 10:37:14;;;;;;;31.90;16.32;;;;;;;2.54;75.14;101320.27;1797172;77;21700;-76
2021/03/02 10:39:44;;;;;;;34.83;17.55;;;;;;;2.53;75.14;101319.46;1805978;77;21377;-76
2021/03/02 10:42:13;;;;;;;36.90;18.85;;;;;;;2.53;75.14;101299.68;1805084;77;21642;-75
2021/03/02 10:44:41;;;;;;;31.12;16.40;;;;;;;2.52;75.13;101300.66;1808676;77;21136;-75
2021/03/02 10:47:09;;;;;;;36.90;18.27;;;;;;;2.53;75.15;101297.52;1804087;77;21488;-75
2021/03/02 10:49:37;;;;;;;32.63;17.45;;;;;;;2.53;75.21;101303.64;1814596;78;21234;-75
2021/03/02 10:52:05;;;;;;;34.05;17.75;;;;;;;2.54;75.24;101293.90;1801526;77;21172;-75
2021/03/02 10:54:33;;;;;;;35.35;18.60;;;;;;;2.54;75.24;101293.90;1810645;77;21228;-76
2021/03/02 10:57:01;;;;;;;31.15;16.42;;;;;;;2.55;75.23;101291.06;1784000;78;21219;-74
2021/03/02 10:59:29;;;;;;;33.60;17.32;;;;;;;2.54;75.21;101288.12;1797418;77;21141;-75
2021/03/02 11:01:57;;;;;;;31.42;16.77;;;;;;;2.55;75.24;101276.56;1810188;78;21188;-76
2021/03/02 11:04:25;;;;;;;34.43;18.23;;;;;;;2.57;75.23;101281.16;1804143;78;21167;-75
2021/03/02 11:06:53;;;;;;;33.85;17.25;;;;;;;2.61;75.19;101272.37;1813074;78;21806;-76
2021/03/02 11:09:21;;;;;;;32.95;16.82;;;;;;;2.63;75.17;101268.21;1816160;77;21142;-75
2021/03/02 11:11:48;;;;;;;33.80;17.12;;;;;;;2.65;75.11;101273.63;1796421;78;21205;-76
2021/03/02 11:14:16;;;;;;;35.52;18.98;;;;;;;2.64;74.94;101256.67;1805576;77;21190;-75
2021/03/02 11:16:44;;;;;;;32.83;16.02;;;;;;;2.65;74.93;101264.39;1796626;77;21124;-74
2021/03/02 11:19:12;;;;;;;33.78;17.25;;;;;;;2.66;74.94;101259.42;1803704;77;21182;-75
2021/03/02 11:21:41;;;;;;;31.40;17.17;;;;;;;2.67;74.86;101252.35;1785267;78;21204;-77
2021/03/02 11:24:08;;;;;;;30.17;15.43;;;;;;;2.67;74.83;101254.48;1812276;77;21166;-75
2021/03/02 11:26:36;;;;;;;31.35;17.12;;;;;;;2.67;74.86;101242.61;1815524;77;21177;-76
2021/03/02 11:29:05;;;;;;;35.95;17.82;;;;;;;2.62;74.82;101242.84;1795881;78;21166;-76
2021/03/02 11:31:34;;;;;;;31.70;17.15;;;;;;;2.61;74.81;101234.63;1813516;77;21617;-75
2021/03/02 11:34:02;;;;;;;28.38;14.65;;;;;;;2.64;74.88;101242.17;1800052;78;21213;-75
2021/03/02 11:36:30;;;;;;;30.95;16.07;;;;;;;2.63;74.89;101222.05;1802045;77;21185;-73
2021/03/02 11:38:58;;;;;;;32.25;17.60;;;;;;;2.64;74.95;101231.62;1787373;78;21186;-76
2021/03/02 11:41:25;;;;;;;30.23;16.75;;;;;;;2.68;74.93;101228.91;1789502;78;21803;-75
2021/03/02 11:43:54;;;;;;;32.70;17.00;;;;;;;2.71;74.79;101228.54;1792751;78;21371;-78
2021/03/02 11:46:21;;;;;;;32.95;18.05;;;;;;;2.73;74.52;101225.20;1784966;79;21187;-76
2021/03/02 11:48:49;;;;;;;32.67;17.60;;;;;;;2.71;74.45;101229.35;1780967;78;21588;-75